createdAt,value
2019-06-08T00:00:20.719Z,4.65
2019-06-08T00:02:49.792Z,5.15
2019-06-08T00:05:18.892Z,4.00
2019-06-08T00:07:47.755Z,7.78
2019-06-08T00:10:16.975Z,8.13
2019-06-08T00:12:45.892Z,5.72
2019-06-08T00:15:16.137Z,9.50
2019-06-08T00:17:46.187Z,8.63
2019-06-08T00:20:15.621Z,8.95
2019-06-08T00:22:44.677Z,8.65
2019-06-08T00:25:14.090Z,6.62
2019-06-08T00:27:42.899Z,6.08
2019-06-08T00:30:13.758Z,7.80
2019-06-08T00:32:42.589Z,6.90
2019-06-08T00:35:11.598Z,7.90
2019-06-08T00:37:40.776Z,7.78
2019-06-08T00:40:09.746Z,10.93
2019-06-08T00:42:38.613Z,7.30
2019-06-08T00:45:08.432Z,8.80
2019-06-08T00:47:47.593Z,5.95
2019-06-08T00:50:08.078Z,5.58
2019-06-08T00:52:36.929Z,7.58
2019-06-08T00:55:07.340Z,5.85
2019-06-08T00:57:36.064Z,5.72
2019-06-08T01:00:11.018Z,4.47
2019-06-08T01:02:37.252Z,5.03
2019-06-08T01:05:08.546Z,4.30
2019-06-08T01:07:37.396Z,4.62
2019-06-08T01:12:57.361Z,5.58
2019-06-08T01:15:31.043Z,8.40
2019-06-08T01:18:03.004Z,7.67
2019-06-08T01:20:27.594Z,11.73
2019-06-08T01:22:56.485Z,8.35
2019-06-08T01:25:25.833Z,11.78
2019-06-08T01:27:54.873Z,10.15
2019-06-08T01:30:24.273Z,12.35
2019-06-08T01:32:53.149Z,10.68
2019-06-08T01:35:22.849Z,8.78
2019-06-08T01:37:51.793Z,8.38
2019-06-08T01:40:21.390Z,7.30
2019-06-08T01:42:53.480Z,6.83
2019-06-08T01:45:32.795Z,6.80
2019-06-08T01:48:18.577Z,5.40
2019-06-08T01:50:33.926Z,5.22
2019-06-08T01:53:03.060Z,6.97
2019-06-08T01:55:33.218Z,6.58
2019-06-08T01:58:02.638Z,8.55
2019-06-08T02:00:37.703Z,7.65
2019-06-08T02:03:02.310Z,7.37
2019-06-08T02:05:32.418Z,7.05
2019-06-08T02:08:01.516Z,6.83
2019-06-08T02:10:36.297Z,6.55
2019-06-08T02:13:08.816Z,7.05
2019-06-08T02:15:38.811Z,7.62
2019-06-08T02:18:09.428Z,7.85
2019-06-08T02:20:39.368Z,7.25
2019-06-08T02:23:08.762Z,6.47
2019-06-08T02:25:37.614Z,5.80
2019-06-08T02:28:06.344Z,5.83
2019-06-08T02:30:37.191Z,5.78
2019-06-08T02:33:05.756Z,4.95
2019-06-08T02:35:35.391Z,5.33
2019-06-08T02:38:05.342Z,5.83
2019-06-08T02:40:35.126Z,7.47
2019-06-08T02:43:04.953Z,7.60
2019-06-08T02:45:38.606Z,7.15
2019-06-08T02:48:07.537Z,6.95
2019-06-08T02:50:54.136Z,7.08
2019-06-08T02:53:24.269Z,6.22
2019-06-08T02:55:53.143Z,5.80
2019-06-08T02:58:22.050Z,5.33
2019-06-08T03:00:52.542Z,6.72
2019-06-08T03:03:22.399Z,8.13
2019-06-08T03:05:51.337Z,6.50
2019-06-08T03:08:20.765Z,4.67
2019-06-08T03:10:52.062Z,5.22
2019-06-08T03:13:22.662Z,4.62
2019-06-08T03:15:52.157Z,4.10
2019-06-08T03:18:23.015Z,5.30
2019-06-08T03:20:51.469Z,4.03
2019-06-08T03:23:20.613Z,3.52
2019-06-08T03:25:53.008Z,3.50
2019-06-08T03:28:19.890Z,3.60
2019-06-08T03:30:54.182Z,2.90
2019-06-08T03:33:20.174Z,3.35
2019-06-08T03:35:56.832Z,2.67
2019-06-08T03:38:19.473Z,3.70
2019-06-08T03:40:51.234Z,2.92
2019-06-08T03:43:20.276Z,2.33
2019-06-08T03:45:49.076Z,2.47
2019-06-08T03:48:18.784Z,3.62
2019-06-08T03:50:47.628Z,5.25
2019-06-08T03:53:16.428Z,3.92
2019-06-08T03:55:47.182Z,4.75
2019-06-08T03:58:15.716Z,4.60
2019-06-08T04:00:46.853Z,5.53
2019-06-08T04:03:15.287Z,4.75
2019-06-08T04:05:44.877Z,5.20
2019-06-08T04:08:14.942Z,5.17
2019-06-08T04:10:44.360Z,4.83
2019-06-08T04:13:16.954Z,4.15
2019-06-08T04:15:46.961Z,3.70
2019-06-08T04:18:15.965Z,5.70
2019-06-08T04:20:46.343Z,4.87
2019-06-08T04:23:15.563Z,4.33
2019-06-08T04:25:45.567Z,4.83
2019-06-08T04:28:15.214Z,5.62
2019-06-08T04:30:45.309Z,7.00
2019-06-08T04:33:16.249Z,5.83
2019-06-08T04:35:47.246Z,4.45
2019-06-08T04:38:15.942Z,5.92
2019-06-08T04:40:47.963Z,7.10
2019-06-08T04:43:15.208Z,6.33
2019-06-08T04:45:45.870Z,6.05
2019-06-08T04:48:14.494Z,5.97
2019-06-08T04:50:45.287Z,5.90
2019-06-08T04:53:14.094Z,5.05
2019-06-08T04:55:45.142Z,5.47
2019-06-08T04:58:15.307Z,5.72
2019-06-08T05:00:46.234Z,4.05
2019-06-08T05:03:14.617Z,4.35
2019-06-08T05:05:45.317Z,6.12
2019-06-08T05:08:14.106Z,6.33
2019-06-08T05:10:43.409Z,4.42
2019-06-08T05:13:12.600Z,5.00
2019-06-08T05:15:41.540Z,5.22
2019-06-08T05:18:11.861Z,5.60
2019-06-08T05:20:43.363Z,6.58
2019-06-08T05:23:11.058Z,6.33
2019-06-08T05:25:41.173Z,6.65
2019-06-08T05:28:10.228Z,5.20
2019-06-08T05:30:39.334Z,8.40
2019-06-08T05:33:08.249Z,7.45
2019-06-08T05:35:37.095Z,8.15
2019-06-08T05:38:05.942Z,7.75
2019-06-08T05:40:34.774Z,9.43
2019-06-08T05:43:03.576Z,7.78
2019-06-08T05:45:32.422Z,9.53
2019-06-08T05:48:01.653Z,9.25
2019-06-08T05:50:30.469Z,7.20
2019-06-08T05:52:59.249Z,8.50
2019-06-08T05:55:28.123Z,7.00
2019-06-08T05:57:56.927Z,8.88
2019-06-08T06:00:25.853Z,11.50
2019-06-08T06:02:54.713Z,8.50
2019-06-08T06:05:23.612Z,11.73
2019-06-08T06:07:52.428Z,10.72
2019-06-08T06:10:21.477Z,8.55
2019-06-08T06:12:51.750Z,11.35
2019-06-08T06:15:20.702Z,10.93
2019-06-08T06:17:51.521Z,8.88
2019-06-08T06:20:20.890Z,10.23
2019-06-08T06:22:49.758Z,8.98
2019-06-08T06:25:18.570Z,10.25
2019-06-08T06:27:47.638Z,11.43
2019-06-08T06:30:16.582Z,8.08
2019-06-08T06:32:46.002Z,9.73
2019-06-08T06:35:15.164Z,8.60
2019-06-08T06:37:45.799Z,9.90
2019-06-08T06:40:14.763Z,9.85
2019-06-08T06:42:43.803Z,8.70
2019-06-08T06:45:12.834Z,7.90
2019-06-08T06:47:42.217Z,9.05
2019-06-08T06:50:11.272Z,7.95
2019-06-08T06:52:40.155Z,9.20
2019-06-08T06:55:10.041Z,7.83
2019-06-08T06:57:38.843Z,8.53
2019-06-08T07:00:09.152Z,8.20
2019-06-08T07:02:38.943Z,7.67
2019-06-08T07:05:08.580Z,7.60
2019-06-08T07:07:37.416Z,7.42
2019-06-08T07:10:09.499Z,7.75
2019-06-08T07:12:38.445Z,7.80
2019-06-08T07:15:07.696Z,8.00
2019-06-08T07:17:36.475Z,6.33
2019-06-08T07:20:07.921Z,7.78
2019-06-08T07:22:36.750Z,7.15
2019-06-08T07:25:06.105Z,5.80
2019-06-08T07:27:35.058Z,8.13
2019-06-08T07:30:05.019Z,6.80
2019-06-08T07:32:35.536Z,8.13
2019-06-08T07:35:08.735Z,7.35
2019-06-08T07:37:37.586Z,9.08
2019-06-08T07:40:07.216Z,8.50
2019-06-08T07:42:36.398Z,7.60
2019-06-08T07:45:07.176Z,7.50
2019-06-08T07:47:36.064Z,8.50
2019-06-08T07:50:06.774Z,7.75
2019-06-08T07:52:35.649Z,8.63
2019-06-08T07:55:05.882Z,8.25
2019-06-08T07:57:35.018Z,9.48
2019-06-08T08:00:09.558Z,8.28
2019-06-08T08:02:36.038Z,7.20
2019-06-08T08:05:06.589Z,8.23
2019-06-08T08:07:35.401Z,8.53
2019-06-08T08:10:07.487Z,8.70
2019-06-08T08:12:36.284Z,8.73
2019-06-08T08:15:07.356Z,8.68
2019-06-08T08:17:36.164Z,8.85
2019-06-08T08:20:07.079Z,8.70
2019-06-08T08:22:38.247Z,8.48
2019-06-08T08:25:08.847Z,9.13
2019-06-08T08:27:37.833Z,8.53
2019-06-08T08:30:08.565Z,11.38
2019-06-08T08:32:39.273Z,8.35
2019-06-08T08:35:09.075Z,9.00
2019-06-08T08:37:38.176Z,8.53
2019-06-08T08:40:08.205Z,8.45
2019-06-08T08:42:38.496Z,9.57
2019-06-08T08:45:08.653Z,8.10
2019-06-08T08:47:38.724Z,8.85
2019-06-08T08:50:08.207Z,9.45
2019-06-08T08:52:40.368Z,8.68
2019-06-08T08:55:08.426Z,9.10
2019-06-08T08:57:38.654Z,9.23
2019-06-08T09:00:09.950Z,8.98
2019-06-08T09:02:38.738Z,8.45
2019-06-08T09:05:08.605Z,9.38
2019-06-08T09:07:38.595Z,8.20
2019-06-08T09:10:11.180Z,7.85
2019-06-08T09:12:38.668Z,8.43
2019-06-08T09:15:08.536Z,8.08
2019-06-08T09:17:38.757Z,7.92
2019-06-08T09:20:13.023Z,7.80
2019-06-08T09:22:52.327Z,7.22
2019-06-08T09:25:09.410Z,7.95
2019-06-08T09:27:38.887Z,7.58
2019-06-08T09:30:08.742Z,7.70
2019-06-08T09:32:38.811Z,8.25
2019-06-08T09:35:09.430Z,8.38
2019-06-08T09:37:38.448Z,8.58
2019-06-08T09:40:08.005Z,7.75
2019-06-08T09:42:36.897Z,8.53
2019-06-08T09:45:10.289Z,6.25
2019-06-08T09:47:39.508Z,6.60
2019-06-08T09:50:09.492Z,7.00
2019-06-08T09:52:41.046Z,6.65
2019-06-08T09:55:10.165Z,6.40
2019-06-08T09:57:41.564Z,6.03
2019-06-08T10:00:18.484Z,5.53
2019-06-08T10:02:47.927Z,5.95
2019-06-08T10:05:38.884Z,5.92
2019-06-08T10:08:09.567Z,5.58
2019-06-08T10:10:42.663Z,5.83
2019-06-08T10:13:13.518Z,5.87
2019-06-08T10:15:51.150Z,6.30
2019-06-08T10:18:19.041Z,6.50
2019-06-08T10:20:54.706Z,6.28
2019-06-08T10:23:34.239Z,5.92
2019-06-08T10:26:04.806Z,5.58
2019-06-08T10:28:35.054Z,6.20
2019-06-08T10:31:06.946Z,5.95
2019-06-08T10:33:41.040Z,6.83
2019-06-08T10:39:12.087Z,5.67
2019-06-08T10:41:42.630Z,6.58
2019-06-08T10:44:14.323Z,6.28
2019-06-08T10:46:44.085Z,6.80
2019-06-08T10:49:14.612Z,6.97
2019-06-08T10:54:38.143Z,7.90
2019-06-08T10:57:07.736Z,7.55
2019-06-08T10:59:43.397Z,7.47
2019-06-08T11:02:18.847Z,8.55
2019-06-08T11:04:50.753Z,7.45
2019-06-08T11:07:19.870Z,9.55
2019-06-08T11:09:50.798Z,7.62
2019-06-08T11:12:21.612Z,8.63
2019-06-08T11:14:54.153Z,7.97
2019-06-08T11:17:27.805Z,6.58
2019-06-08T11:20:00.679Z,8.53
2019-06-08T11:22:29.377Z,7.50
2019-06-08T11:25:00.755Z,7.50
2019-06-08T11:27:30.144Z,8.28
2019-06-08T11:29:59.592Z,8.65
2019-06-08T11:32:28.811Z,8.80
2019-06-08T11:34:57.900Z,8.83
2019-06-08T11:37:29.206Z,7.35
2019-06-08T11:40:00.023Z,8.23
2019-06-08T11:42:31.421Z,8.10
2019-06-08T11:45:04.533Z,8.63
2019-06-08T11:47:45.291Z,7.28
2019-06-08T11:50:18.733Z,6.75
2019-06-08T11:52:49.410Z,7.10
2019-06-08T11:55:19.725Z,6.95
2019-06-08T11:57:49.674Z,6.03
2019-06-08T12:00:48.875Z,6.03
2019-06-08T12:03:19.792Z,5.80
2019-06-08T12:05:53.367Z,6.37
2019-06-08T12:11:18.196Z,6.60
2019-06-08T12:13:47.396Z,7.83
2019-06-08T12:16:22.060Z,8.45
2019-06-08T12:18:53.109Z,6.87
2019-06-08T12:21:27.409Z,7.42
2019-06-08T12:23:56.464Z,7.45
2019-06-08T12:26:30.434Z,8.28
2019-06-08T12:29:01.370Z,8.58
2019-06-08T12:31:32.450Z,8.45
2019-06-08T12:34:04.926Z,7.47
2019-06-08T12:36:37.675Z,7.80
2019-06-08T12:39:07.910Z,6.47
2019-06-08T12:41:37.744Z,6.62
2019-06-08T12:44:15.073Z,5.58
2019-06-08T12:46:44.725Z,5.22
2019-06-08T12:49:14.412Z,4.40
2019-06-08T12:51:44.876Z,4.30
2019-06-08T12:54:16.871Z,4.53
2019-06-08T12:56:49.450Z,4.35
2019-06-08T12:59:23.115Z,3.80
2019-06-08T13:01:58.530Z,4.28
2019-06-08T13:04:33.111Z,4.47
2019-06-08T13:07:04.388Z,3.70
2019-06-08T13:09:35.093Z,2.83
2019-06-08T13:12:07.913Z,4.15
2019-06-08T13:14:39.533Z,4.12
2019-06-08T13:17:21.254Z,3.52
2019-06-08T13:19:55.284Z,3.87
2019-06-08T13:25:36.114Z,3.80
2019-06-08T13:27:52.770Z,4.70
2019-06-08T13:30:25.853Z,3.72
2019-06-08T13:32:58.089Z,3.83
2019-06-08T13:35:31.478Z,3.42
2019-06-08T13:38:01.782Z,3.35
2019-06-08T13:40:30.929Z,3.65
2019-06-08T13:43:02.148Z,4.40
2019-06-08T13:45:35.501Z,4.78
2019-06-08T13:48:04.997Z,3.70
2019-06-08T13:50:38.046Z,4.37
2019-06-08T13:53:10.627Z,4.40
2019-06-08T13:55:52.210Z,4.50
2019-06-08T13:58:13.148Z,3.87
2019-06-08T14:00:44.707Z,3.92
2019-06-08T14:03:16.179Z,4.00
2019-06-08T14:05:47.357Z,5.03
2019-06-08T14:08:20.699Z,4.30
2019-06-08T14:10:49.861Z,4.00
2019-06-08T14:13:34.136Z,4.30
2019-06-08T14:16:13.934Z,4.37
2019-06-08T14:18:43.922Z,4.37
2019-06-08T14:21:14.753Z,4.55
2019-06-08T14:23:48.370Z,4.80
2019-06-08T14:26:20.144Z,4.33
2019-06-08T14:28:52.281Z,3.60
2019-06-08T14:31:27.394Z,3.40
2019-06-08T14:34:00.030Z,3.65
2019-06-08T14:36:40.363Z,4.45
2019-06-08T14:39:03.574Z,4.20
2019-06-08T14:41:35.280Z,4.12
2019-06-08T14:44:05.609Z,4.58
2019-06-08T14:46:40.849Z,3.95
2019-06-08T14:49:09.719Z,3.65
2019-06-08T14:51:53.037Z,3.30
2019-06-08T14:54:30.632Z,3.35
2019-06-08T14:57:00.180Z,3.05
2019-06-08T14:59:33.519Z,3.33
2019-06-08T15:02:02.389Z,3.60
2019-06-08T15:04:36.965Z,4.47
2019-06-08T15:07:09.465Z,4.30
2019-06-08T15:09:40.980Z,3.77
2019-06-08T15:12:10.614Z,3.40
2019-06-08T15:14:40.487Z,3.37
2019-06-08T15:17:13.727Z,3.20
2019-06-08T15:19:47.508Z,4.33
2019-06-08T15:22:20.802Z,3.25
2019-06-08T15:24:52.743Z,3.40
2019-06-08T15:27:25.921Z,3.47
2019-06-08T15:29:58.651Z,3.47
2019-06-08T15:32:33.710Z,3.33
2019-06-08T15:34:59.080Z,3.00
2019-06-08T15:37:30.790Z,3.50
2019-06-08T15:40:00.329Z,4.25
2019-06-08T15:42:33.497Z,3.83
2019-06-08T15:45:08.347Z,4.50
2019-06-08T15:47:40.833Z,4.95
2019-06-08T15:50:17.968Z,4.65
2019-06-08T15:52:49.358Z,7.30
2019-06-08T15:55:20.209Z,7.37
2019-06-08T15:57:50.642Z,6.25
2019-06-08T16:00:23.356Z,6.47
2019-06-08T16:02:54.262Z,6.40
2019-06-08T16:05:27.743Z,5.00
2019-06-08T16:07:58.165Z,5.87
2019-06-08T16:10:28.143Z,4.35
2019-06-08T16:12:57.758Z,4.35
2019-06-08T16:15:28.828Z,4.53
2019-06-08T16:18:00.756Z,6.12
2019-06-08T16:20:33.560Z,5.42
2019-06-08T16:23:02.381Z,6.15
2019-06-08T16:25:36.999Z,5.40
2019-06-08T16:28:08.583Z,5.95
2019-06-08T16:30:37.735Z,5.47
2019-06-08T16:33:17.126Z,7.55
2019-06-08T16:35:46.087Z,6.92
2019-06-08T16:38:15.169Z,6.17
2019-06-08T16:40:48.522Z,5.62
2019-06-08T16:43:19.016Z,5.87
2019-06-08T16:45:50.994Z,5.65
2019-06-08T16:48:21.577Z,5.03
2019-06-08T16:50:55.213Z,5.70
2019-06-08T16:53:29.720Z,5.62
2019-06-08T16:56:00.944Z,5.37
2019-06-08T16:58:34.188Z,5.55
2019-06-08T17:01:05.220Z,5.00
2019-06-08T17:03:35.337Z,4.65
2019-06-08T17:06:06.624Z,4.70
2019-06-08T17:08:38.491Z,4.42
2019-06-08T17:11:07.978Z,5.37
2019-06-08T17:13:40.121Z,4.67
2019-06-08T17:16:11.560Z,4.70
2019-06-08T17:18:42.367Z,4.33
2019-06-08T17:21:12.537Z,4.55
2019-06-08T17:23:42.937Z,5.53
2019-06-08T17:26:12.805Z,3.90
2019-06-08T17:28:43.217Z,4.53
2019-06-08T17:31:14.673Z,5.03
2019-06-08T17:33:45.885Z,5.28
2019-06-08T17:36:18.107Z,4.40
2019-06-08T17:41:42.727Z,3.52
2019-06-08T17:44:14.841Z,4.47
2019-06-08T17:46:47.956Z,4.95
2019-06-08T17:49:19.798Z,5.35
2019-06-08T17:51:49.703Z,5.42
2019-06-08T17:54:21.691Z,4.75
2019-06-08T17:56:52.437Z,4.65
2019-06-08T17:59:24.526Z,3.92
2019-06-08T18:01:53.721Z,4.17
2019-06-08T18:04:25.112Z,4.55
2019-06-08T18:06:58.132Z,4.20
2019-06-08T18:09:33.773Z,3.77
2019-06-08T18:12:07.531Z,3.83
2019-06-08T18:14:41.951Z,5.20
2019-06-08T18:17:11.147Z,4.87
2019-06-08T18:19:43.151Z,4.05
2019-06-08T18:22:15.394Z,4.75
2019-06-08T18:24:48.396Z,4.50
2019-06-08T18:27:18.763Z,4.65
2019-06-08T18:29:48.798Z,5.20
2019-06-08T18:32:18.866Z,5.50
2019-06-08T18:34:48.828Z,4.90
2019-06-08T18:37:18.523Z,5.22
2019-06-08T18:39:49.494Z,4.67
2019-06-08T18:42:20.721Z,4.55
2019-06-08T18:44:51.669Z,4.35
2019-06-08T18:47:23.390Z,4.22
2019-06-08T18:49:57.372Z,4.35
2019-06-08T18:52:28.219Z,4.22
2019-06-08T18:54:58.687Z,4.37
2019-06-08T18:57:31.582Z,4.40
2019-06-08T19:00:08.153Z,4.83
2019-06-08T19:02:31.252Z,4.20
2019-06-08T19:05:02.655Z,4.20
2019-06-08T19:07:36.953Z,4.83
2019-06-08T19:10:09.259Z,6.70
2019-06-08T19:12:39.937Z,6.70
2019-06-08T19:15:12.212Z,13.98
2019-06-08T19:17:50.341Z,7.90
2019-06-08T19:20:19.150Z,6.60
2019-06-08T19:22:54.086Z,9.80
2019-06-08T19:25:27.027Z,5.12
2019-06-08T19:27:58.003Z,4.28
2019-06-08T19:30:29.969Z,5.33
2019-06-08T19:33:01.122Z,5.22
2019-06-08T19:35:34.857Z,7.03
2019-06-08T19:38:07.437Z,4.22
2019-06-08T19:40:39.270Z,3.98
2019-06-08T19:43:09.892Z,3.70
2019-06-08T19:45:44.247Z,4.35
2019-06-08T19:48:17.394Z,3.65
2019-06-08T19:50:47.235Z,4.12
2019-06-08T19:53:18.322Z,4.40
2019-06-08T19:55:53.921Z,4.50
2019-06-08T19:58:23.483Z,4.15
2019-06-08T20:00:58.850Z,3.98
2019-06-08T20:03:28.047Z,4.17
2019-06-08T20:06:00.197Z,3.85
2019-06-08T20:08:31.049Z,3.98
2019-06-08T20:11:00.233Z,4.80
2019-06-08T20:13:33.337Z,4.78
2019-06-08T20:16:08.188Z,4.47
2019-06-08T20:18:38.889Z,4.05
2019-06-08T20:21:12.763Z,4.65
2019-06-08T20:23:43.141Z,3.10
2019-06-08T20:26:17.350Z,4.85
2019-06-08T20:29:11.535Z,4.20
2019-06-08T20:31:27.643Z,4.70
2019-06-08T20:33:59.660Z,3.90
2019-06-08T20:36:31.286Z,4.53
2019-06-08T20:39:01.061Z,4.28
2019-06-08T20:41:33.387Z,4.72
2019-06-08T20:44:08.450Z,3.85
2019-06-08T20:46:39.639Z,4.97
2019-06-08T20:49:11.777Z,4.12
2019-06-08T20:51:43.057Z,4.40
2019-06-08T20:54:17.248Z,4.95
2019-06-08T20:56:50.481Z,4.28
2019-06-08T20:59:29.954Z,4.20
2019-06-08T21:01:58.630Z,4.15
2019-06-08T21:04:31.282Z,4.28
2019-06-08T21:07:02.624Z,3.75
2019-06-08T21:09:33.581Z,4.05
2019-06-08T21:12:03.570Z,4.10
2019-06-08T21:14:37.863Z,4.12
2019-06-08T21:17:27.556Z,3.42
2019-06-08T21:19:58.622Z,4.17
2019-06-08T21:22:35.491Z,3.80
2019-06-08T21:25:09.132Z,4.15
2019-06-08T21:27:42.321Z,4.55
2019-06-08T21:30:23.289Z,4.25
2019-06-08T21:32:50.324Z,3.80
2019-06-08T21:35:18.357Z,3.90
2019-06-08T21:37:51.474Z,3.72
2019-06-08T21:40:22.464Z,4.20
2019-06-08T21:43:01.108Z,4.33
2019-06-08T21:45:31.315Z,4.15
2019-06-08T21:48:01.905Z,3.80
2019-06-08T21:50:33.060Z,3.72
2019-06-08T21:55:54.321Z,3.70
2019-06-08T21:58:24.103Z,3.62
2019-06-08T22:00:59.412Z,2.83
2019-06-08T22:03:33.928Z,3.58
2019-06-08T22:06:10.920Z,3.70
2019-06-08T22:08:50.005Z,3.60
2019-06-08T22:11:22.211Z,3.50
2019-06-08T22:13:52.825Z,3.52
2019-06-08T22:16:27.401Z,3.10
2019-06-08T22:19:00.665Z,3.27
2019-06-08T22:21:33.449Z,2.85
2019-06-08T22:24:08.125Z,3.45
2019-06-08T22:26:38.901Z,2.65
2019-06-08T22:29:10.957Z,3.58
2019-06-08T22:31:41.317Z,3.37
2019-06-08T22:34:12.043Z,3.22
2019-06-08T22:36:42.868Z,3.12
2019-06-08T22:39:14.204Z,3.50
2019-06-08T22:41:47.827Z,3.58
2019-06-08T22:44:17.788Z,3.17
2019-06-08T22:46:50.216Z,3.40
2019-06-08T22:49:20.640Z,3.27
2019-06-08T22:51:55.706Z,3.62
2019-06-08T22:54:27.473Z,3.37
2019-06-08T22:57:01.821Z,3.30
2019-06-08T22:59:33.520Z,3.20
2019-06-08T23:02:05.828Z,2.85
2019-06-08T23:04:35.271Z,2.72
2019-06-08T23:07:09.562Z,3.10
2019-06-08T23:09:42.385Z,2.92
2019-06-08T23:12:18.195Z,3.33
2019-06-08T23:14:49.909Z,3.08
2019-06-08T23:17:20.492Z,2.67
2019-06-08T23:19:49.296Z,3.47
2019-06-08T23:22:21.337Z,3.00
2019-06-08T23:24:53.310Z,2.90
2019-06-08T23:27:24.002Z,3.15
2019-06-08T23:29:56.658Z,3.27
2019-06-08T23:32:34.126Z,3.17
2019-06-08T23:35:04.857Z,3.70
2019-06-08T23:37:41.364Z,3.60
2019-06-08T23:40:11.237Z,3.35
2019-06-08T23:42:42.014Z,4.00
2019-06-08T23:45:17.606Z,3.33
2019-06-08T23:47:47.866Z,3.37
2019-06-08T23:50:18.174Z,3.77
2019-06-08T23:52:58.145Z,3.37
2019-06-08T23:55:27.993Z,3.65
2019-06-08T23:58:01.488Z,3.62
